sensor_id;sensor_type;location;lat;lon;timestamp;temperature;humidity
64987;DHT22;67903;52.108;9.358;2024-02-26T00:00:26;1.40;90.70
64987;DHT22;67903;52.108;9.358;2024-02-26T00:03:11;1.40;90.50
64987;DHT22;67903;52.108;9.358;2024-02-26T00:05:57;1.40;90.60
64987;DHT22;67903;52.108;9.358;2024-02-26T00:08:42;1.50;90.60
64987;DHT22;67903;52.108;9.358;2024-02-26T00:11:27;1.50;90.60
64987;DHT22;67903;52.108;9.358;2024-02-26T00:14:13;1.60;90.60
64987;DHT22;67903;52.108;9.358;2024-02-26T00:16:59;1.50;90.50
64987;DHT22;67903;52.108;9.358;2024-02-26T00:19:45;1.50;90.40
64987;DHT22;67903;52.108;9.358;2024-02-26T00:22:31;1.50;90.50
64987;DHT22;67903;52.108;9.358;2024-02-26T00:25:17;1.50;90.70
64987;DHT22;67903;52.108;9.358;2024-02-26T00:28:02;1.40;91.10
64987;DHT22;67903;52.108;9.358;2024-02-26T00:30:48;1.50;90.80
64987;DHT22;67903;52.108;9.358;2024-02-26T00:33:34;1.40;90.40
64987;DHT22;67903;52.108;9.358;2024-02-26T00:36:19;1.40;90.10
64987;DHT22;67903;52.108;9.358;2024-02-26T00:39:05;1.40;90.10
64987;DHT22;67903;52.108;9.358;2024-02-26T00:41:51;1.40;90.20
64987;DHT22;67903;52.108;9.358;2024-02-26T00:44:37;1.40;89.50
64987;DHT22;67903;52.108;9.358;2024-02-26T00:47:22;1.40;89.50
64987;DHT22;67903;52.108;9.358;2024-02-26T00:50:08;1.50;89.10
64987;DHT22;67903;52.108;9.358;2024-02-26T00:52:54;1.50;88.90
64987;DHT22;67903;52.108;9.358;2024-02-26T00:55:39;1.50;88.70
64987;DHT22;67903;52.108;9.358;2024-02-26T00:58:25;1.50;88.60
64987;DHT22;67903;52.108;9.358;2024-02-26T01:01:11;1.40;88.40
64987;DHT22;67903;52.108;9.358;2024-02-26T01:03:57;1.40;88.60
64987;DHT22;67903;52.108;9.358;2024-02-26T01:06:43;1.40;88.60
64987;DHT22;67903;52.108;9.358;2024-02-26T01:09:29;1.20;88.70
64987;DHT22;67903;52.108;9.358;2024-02-26T01:12:14;1.20;89.20
64987;DHT22;67903;52.108;9.358;2024-02-26T01:15:02;1.30;89.60
64987;DHT22;67903;52.108;9.358;2024-02-26T01:17:49;1.40;89.70
64987;DHT22;67903;52.108;9.358;2024-02-26T01:20:34;1.40;89.70
64987;DHT22;67903;52.108;9.358;2024-02-26T01:23:20;1.40;89.80
64987;DHT22;67903;52.108;9.358;2024-02-26T01:26:06;1.40;89.90
64987;DHT22;67903;52.108;9.358;2024-02-26T01:28:51;1.30;90.00
64987;DHT22;67903;52.108;9.358;2024-02-26T01:31:37;1.30;89.80
64987;DHT22;67903;52.108;9.358;2024-02-26T01:34:23;1.20;89.90
64987;DHT22;67903;52.108;9.358;2024-02-26T01:37:09;1.20;89.80
64987;DHT22;67903;52.108;9.358;2024-02-26T01:39:55;1.10;89.60
64987;DHT22;67903;52.108;9.358;2024-02-26T01:42:40;1.00;89.80
64987;DHT22;67903;52.108;9.358;2024-02-26T01:45:26;1.00;90.10
64987;DHT22;67903;52.108;9.358;2024-02-26T01:48:12;1.00;90.70
64987;DHT22;67903;52.108;9.358;2024-02-26T01:50:58;1.00;90.40
64987;DHT22;67903;52.108;9.358;2024-02-26T01:53:44;1.00;90.20
64987;DHT22;67903;52.108;9.358;2024-02-26T01:56:30;1.00;90.50
64987;DHT22;67903;52.108;9.358;2024-02-26T01:59:17;1.10;90.40
64987;DHT22;67903;52.108;9.358;2024-02-26T02:02:06;1.20;90.00
64987;DHT22;67903;52.108;9.358;2024-02-26T02:04:52;1.20;89.80
64987;DHT22;67903;52.108;9.358;2024-02-26T02:07:37;1.20;89.50
64987;DHT22;67903;52.108;9.358;2024-02-26T02:10:24;1.20;89.50
64987;DHT22;67903;52.108;9.358;2024-02-26T02:13:11;1.10;90.00
64987;DHT22;67903;52.108;9.358;2024-02-26T02:15:56;1.20;90.20
64987;DHT22;67903;52.108;9.358;2024-02-26T02:18:42;1.20;90.30
64987;DHT22;67903;52.108;9.358;2024-02-26T02:21:28;1.30;90.00
64987;DHT22;67903;52.108;9.358;2024-02-26T02:24:13;1.30;89.90
64987;DHT22;67903;52.108;9.358;2024-02-26T02:26:59;1.20;89.90
64987;DHT22;67903;52.108;9.358;2024-02-26T02:29:45;1.20;90.10
64987;DHT22;67903;52.108;9.358;2024-02-26T02:32:30;1.20;90.20
64987;DHT22;67903;52.108;9.358;2024-02-26T02:35:16;1.10;90.40
64987;DHT22;67903;52.108;9.358;2024-02-26T02:38:03;1.20;90.50
64987;DHT22;67903;52.108;9.358;2024-02-26T02:40:48;1.30;90.20
64987;DHT22;67903;52.108;9.358;2024-02-26T02:43:33;1.20;90.30
64987;DHT22;67903;52.108;9.358;2024-02-26T02:46:19;1.20;90.20
64987;DHT22;67903;52.108;9.358;2024-02-26T02:49:09;1.30;90.30
64987;DHT22;67903;52.108;9.358;2024-02-26T02:51:55;1.40;90.30
64987;DHT22;67903;52.108;9.358;2024-02-26T02:54:42;1.40;90.20
64987;DHT22;67903;52.108;9.358;2024-02-26T02:57:28;1.40;90.10
64987;DHT22;67903;52.108;9.358;2024-02-26T03:00:14;1.40;89.80
64987;DHT22;67903;52.108;9.358;2024-02-26T03:02:59;1.40;89.80
64987;DHT22;67903;52.108;9.358;2024-02-26T03:05:45;1.40;89.80
64987;DHT22;67903;52.108;9.358;2024-02-26T03:08:30;1.40;89.90
64987;DHT22;67903;52.108;9.358;2024-02-26T03:11:15;1.50;89.70
64987;DHT22;67903;52.108;9.358;2024-02-26T03:14:01;1.50;89.60
64987;DHT22;67903;52.108;9.358;2024-02-26T03:16:47;1.60;89.30
64987;DHT22;67903;52.108;9.358;2024-02-26T03:19:33;1.60;88.90
64987;DHT22;67903;52.108;9.358;2024-02-26T03:22:19;1.70;88.70
64987;DHT22;67903;52.108;9.358;2024-02-26T03:25:06;1.70;88.60
64987;DHT22;67903;52.108;9.358;2024-02-26T03:27:51;1.80;88.50
64987;DHT22;67903;52.108;9.358;2024-02-26T03:30:37;1.80;88.30
64987;DHT22;67903;52.108;9.358;2024-02-26T03:33:22;1.80;88.30
64987;DHT22;67903;52.108;9.358;2024-02-26T03:36:08;1.90;88.20
64987;DHT22;67903;52.108;9.358;2024-02-26T03:38:53;1.90;88.10
64987;DHT22;67903;52.108;9.358;2024-02-26T03:41:39;1.90;88.00
64987;DHT22;67903;52.108;9.358;2024-02-26T03:44:24;1.90;88.00
64987;DHT22;67903;52.108;9.358;2024-02-26T03:47:10;1.90;88.00
64987;DHT22;67903;52.108;9.358;2024-02-26T03:49:55;2.00;87.70
64987;DHT22;67903;52.108;9.358;2024-02-26T03:52:41;2.00;87.70
64987;DHT22;67903;52.108;9.358;2024-02-26T03:55:27;2.10;87.80
64987;DHT22;67903;52.108;9.358;2024-02-26T03:58:13;2.20;86.90
64987;DHT22;67903;52.108;9.358;2024-02-26T04:00:59;2.20;86.50
64987;DHT22;67903;52.108;9.358;2024-02-26T04:03:45;2.30;86.40
64987;DHT22;67903;52.108;9.358;2024-02-26T04:06:31;2.30;86.10
64987;DHT22;67903;52.108;9.358;2024-02-26T04:09:17;2.40;86.10
64987;DHT22;67903;52.108;9.358;2024-02-26T04:12:02;2.40;85.70
64987;DHT22;67903;52.108;9.358;2024-02-26T04:14:48;2.40;85.50
64987;DHT22;67903;52.108;9.358;2024-02-26T04:17:34;2.50;85.50
64987;DHT22;67903;52.108;9.358;2024-02-26T04:20:20;2.50;85.30
64987;DHT22;67903;52.108;9.358;2024-02-26T04:23:05;2.50;85.10
64987;DHT22;67903;52.108;9.358;2024-02-26T04:25:51;2.50;84.80
64987;DHT22;67903;52.108;9.358;2024-02-26T04:28:38;2.50;84.80
64987;DHT22;67903;52.108;9.358;2024-02-26T04:31:24;2.50;84.70
64987;DHT22;67903;52.108;9.358;2024-02-26T04:34:09;2.60;84.50
64987;DHT22;67903;52.108;9.358;2024-02-26T04:36:58;2.60;84.60
64987;DHT22;67903;52.108;9.358;2024-02-26T04:39:43;2.60;84.60
64987;DHT22;67903;52.108;9.358;2024-02-26T04:42:31;2.70;84.20
64987;DHT22;67903;52.108;9.358;2024-02-26T04:45:17;2.70;84.00
64987;DHT22;67903;52.108;9.358;2024-02-26T04:48:03;2.70;83.70
64987;DHT22;67903;52.108;9.358;2024-02-26T04:50:49;2.70;83.70
64987;DHT22;67903;52.108;9.358;2024-02-26T04:53:35;2.70;83.70
64987;DHT22;67903;52.108;9.358;2024-02-26T04:56:21;2.80;83.20
64987;DHT22;67903;52.108;9.358;2024-02-26T04:59:07;2.90;82.90
64987;DHT22;67903;52.108;9.358;2024-02-26T05:01:52;3.00;82.40
64987;DHT22;67903;52.108;9.358;2024-02-26T05:04:38;3.00;82.50
64987;DHT22;67903;52.108;9.358;2024-02-26T05:07:23;3.00;82.60
64987;DHT22;67903;52.108;9.358;2024-02-26T05:10:09;3.00;82.30
64987;DHT22;67903;52.108;9.358;2024-02-26T05:12:55;3.00;82.00
64987;DHT22;67903;52.108;9.358;2024-02-26T05:15:41;3.00;82.20
64987;DHT22;67903;52.108;9.358;2024-02-26T05:18:27;3.10;81.60
64987;DHT22;67903;52.108;9.358;2024-02-26T05:21:12;3.20;81.10
64987;DHT22;67903;52.108;9.358;2024-02-26T05:23:57;3.30;81.00
64987;DHT22;67903;52.108;9.358;2024-02-26T05:26:44;3.30;81.20
64987;DHT22;67903;52.108;9.358;2024-02-26T05:29:30;3.30;80.40
64987;DHT22;67903;52.108;9.358;2024-02-26T05:32:16;3.30;79.70
64987;DHT22;67903;52.108;9.358;2024-02-26T05:35:01;3.30;79.50
64987;DHT22;67903;52.108;9.358;2024-02-26T05:37:49;3.30;79.70
64987;DHT22;67903;52.108;9.358;2024-02-26T05:40:34;3.40;79.80
64987;DHT22;67903;52.108;9.358;2024-02-26T05:43:20;3.50;78.70
64987;DHT22;67903;52.108;9.358;2024-02-26T05:46:05;3.50;77.30
64987;DHT22;67903;52.108;9.358;2024-02-26T05:48:52;3.50;77.50
64987;DHT22;67903;52.108;9.358;2024-02-26T05:51:38;3.50;77.60
64987;DHT22;67903;52.108;9.358;2024-02-26T05:54:23;3.60;77.80
64987;DHT22;67903;52.108;9.358;2024-02-26T05:57:09;3.60;77.40
64987;DHT22;67903;52.108;9.358;2024-02-26T05:59:54;3.60;77.60
64987;DHT22;67903;52.108;9.358;2024-02-26T06:02:40;3.60;78.00
64987;DHT22;67903;52.108;9.358;2024-02-26T06:05:25;3.60;78.20
64987;DHT22;67903;52.108;9.358;2024-02-26T06:08:11;3.60;77.70
64987;DHT22;67903;52.108;9.358;2024-02-26T06:10:57;3.70;77.10
64987;DHT22;67903;52.108;9.358;2024-02-26T06:13:42;3.90;76.60
64987;DHT22;67903;52.108;9.358;2024-02-26T06:16:28;3.80;76.60
64987;DHT22;67903;52.108;9.358;2024-02-26T06:19:13;3.90;76.90
64987;DHT22;67903;52.108;9.358;2024-02-26T06:21:59;3.80;76.90
64987;DHT22;67903;52.108;9.358;2024-02-26T06:24:44;3.90;76.80
64987;DHT22;67903;52.108;9.358;2024-02-26T06:27:30;3.80;77.00
64987;DHT22;67903;52.108;9.358;2024-02-26T06:30:16;3.90;77.00
64987;DHT22;67903;52.108;9.358;2024-02-26T06:33:01;3.90;76.90
64987;DHT22;67903;52.108;9.358;2024-02-26T06:35:47;3.90;76.60
64987;DHT22;67903;52.108;9.358;2024-02-26T06:38:32;3.90;76.50
64987;DHT22;67903;52.108;9.358;2024-02-26T06:41:18;3.90;76.20
64987;DHT22;67903;52.108;9.358;2024-02-26T06:44:04;3.90;76.90
64987;DHT22;67903;52.108;9.358;2024-02-26T06:46:49;3.90;77.10
64987;DHT22;67903;52.108;9.358;2024-02-26T06:49:35;3.90;77.10
64987;DHT22;67903;52.108;9.358;2024-02-26T06:52:20;3.90;77.10
64987;DHT22;67903;52.108;9.358;2024-02-26T06:55:06;3.90;77.10
64987;DHT22;67903;52.108;9.358;2024-02-26T06:57:53;4.00;77.20
64987;DHT22;67903;52.108;9.358;2024-02-26T07:00:38;4.00;76.90
64987;DHT22;67903;52.108;9.358;2024-02-26T07:03:24;3.90;76.90
64987;DHT22;67903;52.108;9.358;2024-02-26T07:06:10;4.00;77.20
64987;DHT22;67903;52.108;9.358;2024-02-26T07:08:58;4.00;77.00
64987;DHT22;67903;52.108;9.358;2024-02-26T07:11:43;4.10;76.70
64987;DHT22;67903;52.108;9.358;2024-02-26T07:14:29;4.10;76.60
64987;DHT22;67903;52.108;9.358;2024-02-26T07:17:14;4.30;75.60
64987;DHT22;67903;52.108;9.358;2024-02-26T07:20:01;4.30;75.70
64987;DHT22;67903;52.108;9.358;2024-02-26T07:22:53;4.30;75.80
64987;DHT22;67903;52.108;9.358;2024-02-26T07:25:39;4.30;75.80
64987;DHT22;67903;52.108;9.358;2024-02-26T07:28:24;4.30;75.70
64987;DHT22;67903;52.108;9.358;2024-02-26T07:31:10;4.30;75.70
64987;DHT22;67903;52.108;9.358;2024-02-26T07:33:56;4.30;75.70
64987;DHT22;67903;52.108;9.358;2024-02-26T07:36:41;4.30;75.70
64987;DHT22;67903;52.108;9.358;2024-02-26T07:39:27;4.30;75.80
64987;DHT22;67903;52.108;9.358;2024-02-26T07:42:12;4.30;76.00
64987;DHT22;67903;52.108;9.358;2024-02-26T07:44:58;4.30;75.80
64987;DHT22;67903;52.108;9.358;2024-02-26T07:47:43;4.30;75.70
64987;DHT22;67903;52.108;9.358;2024-02-26T07:50:29;4.40;75.50
64987;DHT22;67903;52.108;9.358;2024-02-26T07:53:14;4.40;75.00
64987;DHT22;67903;52.108;9.358;2024-02-26T07:56:00;4.40;75.20
64987;DHT22;67903;52.108;9.358;2024-02-26T07:58:45;4.50;74.40
64987;DHT22;67903;52.108;9.358;2024-02-26T08:01:30;4.50;74.60
64987;DHT22;67903;52.108;9.358;2024-02-26T08:04:16;4.50;74.20
64987;DHT22;67903;52.108;9.358;2024-02-26T08:07:02;4.50;74.30
64987;DHT22;67903;52.108;9.358;2024-02-26T08:09:48;4.50;74.30
64987;DHT22;67903;52.108;9.358;2024-02-26T08:12:34;4.50;73.90
64987;DHT22;67903;52.108;9.358;2024-02-26T08:15:19;4.50;73.80
64987;DHT22;67903;52.108;9.358;2024-02-26T08:18:05;4.60;73.60
64987;DHT22;67903;52.108;9.358;2024-02-26T08:20:51;4.50;73.70
64987;DHT22;67903;52.108;9.358;2024-02-26T08:23:37;4.50;73.90
64987;DHT22;67903;52.108;9.358;2024-02-26T08:26:22;4.50;73.30
64987;DHT22;67903;52.108;9.358;2024-02-26T08:29:09;4.50;73.20
64987;DHT22;67903;52.108;9.358;2024-02-26T08:31:55;4.60;72.90
64987;DHT22;67903;52.108;9.358;2024-02-26T08:34:40;4.70;72.80
64987;DHT22;67903;52.108;9.358;2024-02-26T08:37:26;4.70;72.30
64987;DHT22;67903;52.108;9.358;2024-02-26T08:40:11;4.80;71.90
64987;DHT22;67903;52.108;9.358;2024-02-26T08:42:57;4.90;72.10
64987;DHT22;67903;52.108;9.358;2024-02-26T08:45:43;4.90;71.60
64987;DHT22;67903;52.108;9.358;2024-02-26T08:48:28;4.90;71.80
64987;DHT22;67903;52.108;9.358;2024-02-26T08:51:14;5.00;71.80
64987;DHT22;67903;52.108;9.358;2024-02-26T08:53:59;5.00;71.50
64987;DHT22;67903;52.108;9.358;2024-02-26T08:56:45;5.00;71.90
64987;DHT22;67903;52.108;9.358;2024-02-26T08:59:30;5.00;71.80
64987;DHT22;67903;52.108;9.358;2024-02-26T09:02:16;5.00;72.10
64987;DHT22;67903;52.108;9.358;2024-02-26T09:05:01;5.00;71.70
64987;DHT22;67903;52.108;9.358;2024-02-26T09:07:47;5.00;72.20
64987;DHT22;67903;52.108;9.358;2024-02-26T09:10:32;5.00;71.90
64987;DHT22;67903;52.108;9.358;2024-02-26T09:13:18;5.00;72.20
64987;DHT22;67903;52.108;9.358;2024-02-26T09:16:04;4.90;72.30
64987;DHT22;67903;52.108;9.358;2024-02-26T09:18:49;5.00;72.40
64987;DHT22;67903;52.108;9.358;2024-02-26T09:21:35;5.10;72.10
64987;DHT22;67903;52.108;9.358;2024-02-26T09:24:20;5.00;72.10
64987;DHT22;67903;52.108;9.358;2024-02-26T09:27:06;5.10;72.30
64987;DHT22;67903;52.108;9.358;2024-02-26T09:29:51;5.10;72.30
64987;DHT22;67903;52.108;9.358;2024-02-26T09:32:37;5.30;72.20
64987;DHT22;67903;52.108;9.358;2024-02-26T09:35:23;5.50;71.90
64987;DHT22;67903;52.108;9.358;2024-02-26T09:38:08;5.50;71.50
64987;DHT22;67903;52.108;9.358;2024-02-26T09:40:54;5.60;71.20
64987;DHT22;67903;52.108;9.358;2024-02-26T09:43:43;5.70;71.20
64987;DHT22;67903;52.108;9.358;2024-02-26T09:46:30;5.80;71.10
64987;DHT22;67903;52.108;9.358;2024-02-26T09:49:16;5.90;70.90
64987;DHT22;67903;52.108;9.358;2024-02-26T09:52:04;6.00;70.70
64987;DHT22;67903;52.108;9.358;2024-02-26T09:54:50;6.10;70.20
64987;DHT22;67903;52.108;9.358;2024-02-26T09:57:37;6.10;70.30
64987;DHT22;67903;52.108;9.358;2024-02-26T10:00:23;6.10;70.10
64987;DHT22;67903;52.108;9.358;2024-02-26T10:03:13;6.10;70.70
64987;DHT22;67903;52.108;9.358;2024-02-26T10:06:01;6.10;70.10
64987;DHT22;67903;52.108;9.358;2024-02-26T10:08:49;6.00;69.80
64987;DHT22;67903;52.108;9.358;2024-02-26T10:11:35;5.90;69.80
64987;DHT22;67903;52.108;9.358;2024-02-26T10:14:22;5.90;69.70
64987;DHT22;67903;52.108;9.358;2024-02-26T10:17:09;5.80;69.50
64987;DHT22;67903;52.108;9.358;2024-02-26T10:19:54;5.90;69.50
64987;DHT22;67903;52.108;9.358;2024-02-26T10:22:42;5.90;69.60
64987;DHT22;67903;52.108;9.358;2024-02-26T10:25:27;5.90;68.90
64987;DHT22;67903;52.108;9.358;2024-02-26T10:28:13;5.90;69.20
64987;DHT22;67903;52.108;9.358;2024-02-26T10:30:59;6.00;69.10
64987;DHT22;67903;52.108;9.358;2024-02-26T10:33:45;6.10;68.80
64987;DHT22;67903;52.108;9.358;2024-02-26T10:36:34;6.10;68.40
64987;DHT22;67903;52.108;9.358;2024-02-26T10:39:32;6.10;68.10
64987;DHT22;67903;52.108;9.358;2024-02-26T10:42:19;6.00;68.00
64987;DHT22;67903;52.108;9.358;2024-02-26T10:45:06;6.10;68.40
64987;DHT22;67903;52.108;9.358;2024-02-26T10:47:51;6.20;67.70
64987;DHT22;67903;52.108;9.358;2024-02-26T10:50:37;6.40;67.90
64987;DHT22;67903;52.108;9.358;2024-02-26T10:53:25;6.60;67.60
64987;DHT22;67903;52.108;9.358;2024-02-26T10:56:16;6.60;66.90
64987;DHT22;67903;52.108;9.358;2024-02-26T10:59:04;6.70;67.20
64987;DHT22;67903;52.108;9.358;2024-02-26T11:01:50;6.80;66.30
64987;DHT22;67903;52.108;9.358;2024-02-26T11:04:37;6.90;65.80
64987;DHT22;67903;52.108;9.358;2024-02-26T11:07:24;7.00;66.10
64987;DHT22;67903;52.108;9.358;2024-02-26T11:10:11;7.20;65.10
64987;DHT22;67903;52.108;9.358;2024-02-26T11:12:59;7.30;65.10
64987;DHT22;67903;52.108;9.358;2024-02-26T11:15:47;7.50;64.70
64987;DHT22;67903;52.108;9.358;2024-02-26T11:18:34;7.60;63.70
64987;DHT22;67903;52.108;9.358;2024-02-26T11:21:21;7.60;64.10
64987;DHT22;67903;52.108;9.358;2024-02-26T11:24:23;7.70;63.70
64987;DHT22;67903;52.108;9.358;2024-02-26T11:27:10;7.80;63.50
64987;DHT22;67903;52.108;9.358;2024-02-26T11:29:58;7.80;63.40
64987;DHT22;67903;52.108;9.358;2024-02-26T11:32:46;7.80;63.50
64987;DHT22;67903;52.108;9.358;2024-02-26T11:35:32;7.90;63.50
64987;DHT22;67903;52.108;9.358;2024-02-26T11:38:24;7.80;63.40
64987;DHT22;67903;52.108;9.358;2024-02-26T11:41:11;7.80;63.50
64987;DHT22;67903;52.108;9.358;2024-02-26T11:44:01;7.60;63.20
64987;DHT22;67903;52.108;9.358;2024-02-26T11:46:47;7.70;63.30
64987;DHT22;67903;52.108;9.358;2024-02-26T11:49:33;7.70;63.00
64987;DHT22;67903;52.108;9.358;2024-02-26T11:52:20;7.70;63.00
64987;DHT22;67903;52.108;9.358;2024-02-26T11:55:06;7.80;63.00
64987;DHT22;67903;52.108;9.358;2024-02-26T11:57:54;7.90;62.90
64987;DHT22;67903;52.108;9.358;2024-02-26T12:00:40;7.80;62.50
64987;DHT22;67903;52.108;9.358;2024-02-26T12:03:26;7.80;62.90
64987;DHT22;67903;52.108;9.358;2024-02-26T12:06:12;7.60;62.70
64987;DHT22;67903;52.108;9.358;2024-02-26T12:08:57;7.60;62.80
64987;DHT22;67903;52.108;9.358;2024-02-26T12:11:43;7.70;62.80
64987;DHT22;67903;52.108;9.358;2024-02-26T12:14:28;7.80;62.90
64987;DHT22;67903;52.108;9.358;2024-02-26T12:17:20;7.80;62.80
64987;DHT22;67903;52.108;9.358;2024-02-26T12:20:10;7.80;62.80
64987;DHT22;67903;52.108;9.358;2024-02-26T12:22:56;7.80;63.10
64987;DHT22;67903;52.108;9.358;2024-02-26T12:25:41;7.80;62.90
64987;DHT22;67903;52.108;9.358;2024-02-26T12:28:29;7.80;63.20
64987;DHT22;67903;52.108;9.358;2024-02-26T12:31:15;7.80;63.10
64987;DHT22;67903;52.108;9.358;2024-02-26T12:34:01;7.80;63.60
64987;DHT22;67903;52.108;9.358;2024-02-26T12:36:47;7.80;63.60
64987;DHT22;67903;52.108;9.358;2024-02-26T12:39:32;7.80;64.00
64987;DHT22;67903;52.108;9.358;2024-02-26T12:42:18;7.80;64.50
64987;DHT22;67903;52.108;9.358;2024-02-26T12:45:04;7.80;64.20
64987;DHT22;67903;52.108;9.358;2024-02-26T12:47:54;7.90;64.30
64987;DHT22;67903;52.108;9.358;2024-02-26T12:50:39;7.80;64.70
64987;DHT22;67903;52.108;9.358;2024-02-26T12:53:26;7.80;64.70
64987;DHT22;67903;52.108;9.358;2024-02-26T12:56:12;7.80;65.00
64987;DHT22;67903;52.108;9.358;2024-02-26T12:58:59;7.80;65.20
64987;DHT22;67903;52.108;9.358;2024-02-26T13:01:45;7.70;65.40
64987;DHT22;67903;52.108;9.358;2024-02-26T13:04:31;7.70;65.60
64987;DHT22;67903;52.108;9.358;2024-02-26T13:07:17;7.60;65.90
64987;DHT22;67903;52.108;9.358;2024-02-26T13:10:03;7.60;66.00
64987;DHT22;67903;52.108;9.358;2024-02-26T13:12:50;7.80;66.30
64987;DHT22;67903;52.108;9.358;2024-02-26T13:15:39;7.70;65.90
64987;DHT22;67903;52.108;9.358;2024-02-26T13:18:27;7.60;66.20
64987;DHT22;67903;52.108;9.358;2024-02-26T13:21:18;7.50;66.50
64987;DHT22;67903;52.108;9.358;2024-02-26T13:24:06;7.50;66.50
64987;DHT22;67903;52.108;9.358;2024-02-26T13:26:55;7.50;66.60
64987;DHT22;67903;52.108;9.358;2024-02-26T13:29:41;7.50;66.50
64987;DHT22;67903;52.108;9.358;2024-02-26T13:32:26;7.50;66.60
64987;DHT22;67903;52.108;9.358;2024-02-26T13:35:16;7.50;66.80
64987;DHT22;67903;52.108;9.358;2024-02-26T13:38:03;7.50;66.80
64987;DHT22;67903;52.108;9.358;2024-02-26T13:40:50;7.60;66.50
64987;DHT22;67903;52.108;9.358;2024-02-26T13:43:35;7.60;66.40
64987;DHT22;67903;52.108;9.358;2024-02-26T13:46:21;7.50;66.60
64987;DHT22;67903;52.108;9.358;2024-02-26T13:49:09;7.50;66.90
64987;DHT22;67903;52.108;9.358;2024-02-26T13:51:54;7.50;66.80
64987;DHT22;67903;52.108;9.358;2024-02-26T13:54:40;7.50;67.10
64987;DHT22;67903;52.108;9.358;2024-02-26T13:57:26;7.50;67.10
64987;DHT22;67903;52.108;9.358;2024-02-26T14:00:12;7.60;67.20
64987;DHT22;67903;52.108;9.358;2024-02-26T14:02:59;7.60;67.20
64987;DHT22;67903;52.108;9.358;2024-02-26T14:05:45;7.60;67.30
64987;DHT22;67903;52.108;9.358;2024-02-26T14:08:32;7.60;67.00
64987;DHT22;67903;52.108;9.358;2024-02-26T14:11:18;7.60;67.00
64987;DHT22;67903;52.108;9.358;2024-02-26T14:14:04;7.60;66.70
64987;DHT22;67903;52.108;9.358;2024-02-26T14:16:49;7.60;66.90
64987;DHT22;67903;52.108;9.358;2024-02-26T14:19:35;7.50;67.20
64987;DHT22;67903;52.108;9.358;2024-02-26T14:22:21;7.60;67.20
64987;DHT22;67903;52.108;9.358;2024-02-26T14:25:07;7.60;67.20
64987;DHT22;67903;52.108;9.358;2024-02-26T14:27:54;7.50;67.10
64987;DHT22;67903;52.108;9.358;2024-02-26T14:30:40;7.60;67.20
64987;DHT22;67903;52.108;9.358;2024-02-26T14:33:25;7.60;66.90
64987;DHT22;67903;52.108;9.358;2024-02-26T14:36:11;7.60;66.80
64987;DHT22;67903;52.108;9.358;2024-02-26T14:38:57;7.70;66.90
64987;DHT22;67903;52.108;9.358;2024-02-26T14:41:43;7.60;66.90
64987;DHT22;67903;52.108;9.358;2024-02-26T14:44:28;7.60;67.00
64987;DHT22;67903;52.108;9.358;2024-02-26T14:47:14;7.60;67.10
64987;DHT22;67903;52.108;9.358;2024-02-26T14:50:00;7.60;67.00
64987;DHT22;67903;52.108;9.358;2024-02-26T14:52:46;7.60;66.90
64987;DHT22;67903;52.108;9.358;2024-02-26T14:55:31;7.60;67.10
64987;DHT22;67903;52.108;9.358;2024-02-26T14:58:17;7.60;67.20
64987;DHT22;67903;52.108;9.358;2024-02-26T15:01:03;7.60;67.20
64987;DHT22;67903;52.108;9.358;2024-02-26T15:03:49;7.60;67.20
64987;DHT22;67903;52.108;9.358;2024-02-26T15:06:34;7.60;67.10
64987;DHT22;67903;52.108;9.358;2024-02-26T15:09:20;7.70;66.60
64987;DHT22;67903;52.108;9.358;2024-02-26T15:12:06;7.70;66.50
64987;DHT22;67903;52.108;9.358;2024-02-26T15:14:52;7.60;66.50
64987;DHT22;67903;52.108;9.358;2024-02-26T15:17:38;7.60;66.50
64987;DHT22;67903;52.108;9.358;2024-02-26T15:20:23;7.60;66.50
64987;DHT22;67903;52.108;9.358;2024-02-26T15:23:09;7.60;66.50
64987;DHT22;67903;52.108;9.358;2024-02-26T15:25:54;7.60;66.50
64987;DHT22;67903;52.108;9.358;2024-02-26T15:28:40;7.60;66.60
64987;DHT22;67903;52.108;9.358;2024-02-26T15:31:26;7.60;66.80
64987;DHT22;67903;52.108;9.358;2024-02-26T15:34:12;7.60;66.50
64987;DHT22;67903;52.108;9.358;2024-02-26T15:36:58;7.60;66.60
64987;DHT22;67903;52.108;9.358;2024-02-26T15:39:43;7.50;66.40
64987;DHT22;67903;52.108;9.358;2024-02-26T15:42:30;7.50;66.40
64987;DHT22;67903;52.108;9.358;2024-02-26T15:45:16;7.50;66.80
64987;DHT22;67903;52.108;9.358;2024-02-26T15:48:02;7.50;66.70
64987;DHT22;67903;52.108;9.358;2024-02-26T15:50:47;7.50;66.60
64987;DHT22;67903;52.108;9.358;2024-02-26T15:53:33;7.50;66.60
64987;DHT22;67903;52.108;9.358;2024-02-26T15:56:19;7.50;66.50
64987;DHT22;67903;52.108;9.358;2024-02-26T15:59:10;7.50;66.50
64987;DHT22;67903;52.108;9.358;2024-02-26T16:01:56;7.50;66.60
64987;DHT22;67903;52.108;9.358;2024-02-26T16:04:41;7.50;66.70
64987;DHT22;67903;52.108;9.358;2024-02-26T16:07:37;7.50;66.20
64987;DHT22;67903;52.108;9.358;2024-02-26T16:10:24;7.50;66.40
64987;DHT22;67903;52.108;9.358;2024-02-26T16:13:13;7.50;66.50
64987;DHT22;67903;52.108;9.358;2024-02-26T16:16:03;7.50;66.50
64987;DHT22;67903;52.108;9.358;2024-02-26T16:18:49;7.50;66.60
64987;DHT22;67903;52.108;9.358;2024-02-26T16:21:35;7.50;66.60
64987;DHT22;67903;52.108;9.358;2024-02-26T16:24:21;7.50;66.70
64987;DHT22;67903;52.108;9.358;2024-02-26T16:27:07;7.50;67.00
64987;DHT22;67903;52.108;9.358;2024-02-26T16:29:53;7.50;67.00
64987;DHT22;67903;52.108;9.358;2024-02-26T16:32:39;7.40;67.30
64987;DHT22;67903;52.108;9.358;2024-02-26T16:35:25;7.40;67.40
64987;DHT22;67903;52.108;9.358;2024-02-26T16:38:10;7.40;67.50
64987;DHT22;67903;52.108;9.358;2024-02-26T16:40:56;7.40;67.60
64987;DHT22;67903;52.108;9.358;2024-02-26T16:43:41;7.40;67.80
64987;DHT22;67903;52.108;9.358;2024-02-26T16:46:27;7.40;67.80
64987;DHT22;67903;52.108;9.358;2024-02-26T16:49:12;7.30;67.80
64987;DHT22;67903;52.108;9.358;2024-02-26T16:51:57;7.20;67.80
64987;DHT22;67903;52.108;9.358;2024-02-26T16:54:43;7.20;67.90
64987;DHT22;67903;52.108;9.358;2024-02-26T16:57:29;7.30;68.10
64987;DHT22;67903;52.108;9.358;2024-02-26T17:00:14;7.20;67.90
64987;DHT22;67903;52.108;9.358;2024-02-26T17:03:01;7.20;68.10
64987;DHT22;67903;52.108;9.358;2024-02-26T17:05:46;7.20;68.10
64987;DHT22;67903;52.108;9.358;2024-02-26T17:08:32;7.20;68.30
64987;DHT22;67903;52.108;9.358;2024-02-26T17:11:19;7.20;68.40
64987;DHT22;67903;52.108;9.358;2024-02-26T17:14:05;7.20;68.60
64987;DHT22;67903;52.108;9.358;2024-02-26T17:16:50;7.20;68.70
64987;DHT22;67903;52.108;9.358;2024-02-26T17:19:36;7.20;68.90
64987;DHT22;67903;52.108;9.358;2024-02-26T17:22:22;7.20;69.10
64987;DHT22;67903;52.108;9.358;2024-02-26T17:25:10;7.10;69.20
64987;DHT22;67903;52.108;9.358;2024-02-26T17:27:57;7.10;69.40
64987;DHT22;67903;52.108;9.358;2024-02-26T17:30:43;7.10;69.40
64987;DHT22;67903;52.108;9.358;2024-02-26T17:33:29;7.00;69.80
64987;DHT22;67903;52.108;9.358;2024-02-26T17:36:14;7.00;69.50
64987;DHT22;67903;52.108;9.358;2024-02-26T17:39:00;7.00;69.60
64987;DHT22;67903;52.108;9.358;2024-02-26T17:41:45;7.00;69.70
64987;DHT22;67903;52.108;9.358;2024-02-26T17:44:38;7.00;69.80